Bayview, Idaho
Current Conditions -  °F | °C
As of 4:55 PM on Saturday 20 Dec 2014 (Local Time) from KCOE Reporting Station
Overcast Overcast  
Wind Chill: 36°   Ceiling: 1900
Heat Index: 39°   Visibility: 10mi
Dew Point: 37°   Wind: 5mph
Humidity: 93%   Direction: 170°S
Pressure: 29.68"   Gusts: NA
Location:  47.98°N, 116.56°W
Report Text: KCOE 210055Z AUTO 17004KT 10SM BKN019 BKN024 OVC030 04/03 A2968 RMK AO1
Loading
Personal Weather Stations






























Interactive Weather Map New forecast layout! Learn more

10-Day Weather Forecast

Advertisements
Track Severe Weather on mobile